createdAt,value
2019-04-26T00:00:29.009Z,9.80
2019-04-26T00:03:01.348Z,9.80
2019-04-26T00:05:35.699Z,9.80
2019-04-26T00:08:01.571Z,9.80
2019-04-26T00:10:49.984Z,9.80
2019-04-26T00:13:27.600Z,9.80
2019-04-26T00:16:07.363Z,9.80
2019-04-26T00:18:39.426Z,9.80
2019-04-26T00:21:07.722Z,9.80
2019-04-26T00:23:37.028Z,9.80
2019-04-26T00:26:06.771Z,9.80
2019-04-26T00:28:36.016Z,9.80
2019-04-26T00:31:05.435Z,9.70
2019-04-26T00:33:34.694Z,9.70
2019-04-26T00:36:03.940Z,9.70
2019-04-26T00:38:33.193Z,9.80
2019-04-26T00:41:02.557Z,9.80
2019-04-26T00:43:31.897Z,9.80
2019-04-26T00:46:02.156Z,9.90
2019-04-26T00:48:32.498Z,9.90
2019-04-26T00:51:02.253Z,10.00
2019-04-26T00:53:32.842Z,10.00
2019-04-26T00:56:03.109Z,10.10
2019-04-26T00:58:33.663Z,10.10
2019-04-26T01:01:04.297Z,10.20
2019-04-26T01:03:34.004Z,10.20
2019-04-26T01:06:05.036Z,10.30
2019-04-26T01:08:34.306Z,10.30
2019-04-26T01:11:03.620Z,10.30
2019-04-26T01:13:32.917Z,10.30
2019-04-26T01:16:02.214Z,10.30
2019-04-26T01:18:31.892Z,10.30
2019-04-26T01:21:02.964Z,10.30
2019-04-26T01:23:33.550Z,10.20
2019-04-26T01:26:06.036Z,10.20
2019-04-26T01:28:39.377Z,10.10
2019-04-26T01:31:09.048Z,10.10
2019-04-26T01:33:38.512Z,10.00
2019-04-26T01:36:13.125Z,10.00
2019-04-26T01:38:40.116Z,10.00
2019-04-26T01:41:14.020Z,10.00
2019-04-26T01:43:54.555Z,10.00
2019-04-26T01:46:29.613Z,10.00
2019-04-26T01:49:00.497Z,9.90
2019-04-26T01:51:41.873Z,9.90
2019-04-26T01:54:12.640Z,9.90
2019-04-26T01:56:42.001Z,9.90
2019-04-26T01:59:12.461Z,9.90
2019-04-26T02:02:09.919Z,9.90
2019-04-26T02:04:41.599Z,9.90
2019-04-26T02:07:11.167Z,9.90
2019-04-26T02:09:40.735Z,9.90
2019-04-26T02:12:10.184Z,9.90
2019-04-26T02:14:40.822Z,9.90
2019-04-26T02:17:10.150Z,9.90
2019-04-26T02:19:39.554Z,9.90
2019-04-26T02:22:24.499Z,9.90
2019-04-26T02:24:53.950Z,9.90
2019-04-26T02:27:32.501Z,9.90
2019-04-26T02:30:02.657Z,9.80
2019-04-26T02:32:33.331Z,9.80
2019-04-26T02:35:03.046Z,9.90
2019-04-26T02:37:34.182Z,9.90
2019-04-26T02:40:03.776Z,9.90
2019-04-26T02:42:36.716Z,9.90
2019-04-26T02:46:12.462Z,9.90
2019-04-26T02:49:11.741Z,9.90
2019-04-26T02:51:42.919Z,9.80
2019-04-26T02:54:15.172Z,9.80
2019-04-26T02:56:46.068Z,9.80
2019-04-26T02:59:37.780Z,9.80
2019-04-26T03:02:07.500Z,9.80
2019-04-26T03:04:39.504Z,9.80
2019-04-26T03:07:12.496Z,9.80
2019-04-26T03:09:43.361Z,9.90
2019-04-26T03:12:14.829Z,9.90
2019-04-26T03:14:52.241Z,9.90
2019-04-26T03:17:30.460Z,9.90
2019-04-26T03:20:02.484Z,9.80
2019-04-26T03:22:49.599Z,9.80
2019-04-26T03:25:23.047Z,9.80
2019-04-26T03:28:00.267Z,9.80
2019-04-26T03:30:39.054Z,9.80
2019-04-26T03:33:27.484Z,9.80
2019-04-26T03:36:20.974Z,9.80
2019-04-26T03:39:00.769Z,9.70
2019-04-26T03:41:40.568Z,9.60
2019-04-26T03:44:20.097Z,9.60
2019-04-26T03:46:58.599Z,9.60
2019-04-26T03:49:43.397Z,9.60
2019-04-26T03:52:30.693Z,9.50
2019-04-26T03:55:02.744Z,9.50
2019-04-26T03:57:44.303Z,9.30
2019-04-26T04:00:40.699Z,9.30
2019-04-26T04:03:47.570Z,9.20
2019-04-26T04:06:22.106Z,9.10
2019-04-26T04:08:57.314Z,9.00
2019-04-26T04:11:30.837Z,9.00
2019-04-26T04:14:03.096Z,8.90
2019-04-26T04:16:38.699Z,8.90
2019-04-26T04:19:14.156Z,8.90
2019-04-26T04:21:54.641Z,8.80
2019-04-26T04:24:29.571Z,8.80
2019-04-26T04:27:10.917Z,8.80
2019-04-26T04:29:53.473Z,8.70
2019-04-26T04:32:32.306Z,8.70
2019-04-26T04:35:06.427Z,8.60
2019-04-26T04:37:55.691Z,8.50
2019-04-26T04:40:30.012Z,8.50
2019-04-26T04:43:07.809Z,8.40
2019-04-26T04:46:01.230Z,8.30
2019-04-26T04:48:55.346Z,8.30
2019-04-26T04:51:35.224Z,8.30
2019-04-26T04:54:16.244Z,8.20
2019-04-26T04:57:03.365Z,8.10
2019-04-26T04:59:44.075Z,8.10
2019-04-26T05:02:40.801Z,8.00
2019-04-26T05:05:26.157Z,7.90
2019-04-26T05:08:14.696Z,7.90
2019-04-26T05:10:48.006Z,7.80
2019-04-26T05:13:20.990Z,7.80
2019-04-26T05:16:19.166Z,7.70
2019-04-26T05:19:25.768Z,7.60
2019-04-26T05:22:05.881Z,7.50
2019-04-26T05:24:43.168Z,7.40
2019-04-26T05:27:48.701Z,7.40
2019-04-26T05:30:43.274Z,7.40
2019-04-26T05:33:17.288Z,7.40
2019-04-26T05:35:57.833Z,7.40
2019-04-26T05:39:06.546Z,7.40
2019-04-26T05:41:55.715Z,7.40
2019-04-26T05:44:35.221Z,7.40
2019-04-26T05:47:19.971Z,7.40
2019-04-26T05:50:11.501Z,7.40
2019-04-26T05:53:05.191Z,7.40
2019-04-26T05:56:22.981Z,7.40
2019-04-26T05:59:23.157Z,7.40
2019-04-26T06:02:27.147Z,7.50
2019-04-26T06:05:13.284Z,7.50
2019-04-26T06:08:09.900Z,7.50
2019-04-26T06:10:49.728Z,7.50
2019-04-26T06:14:02.258Z,7.50
2019-04-26T06:16:56.951Z,7.50
2019-04-26T06:19:49.577Z,7.60
2019-04-26T06:22:27.478Z,7.60
2019-04-26T06:25:09.989Z,7.60
2019-04-26T06:27:54.448Z,7.70
2019-04-26T06:30:45.059Z,7.80
2019-04-26T06:33:19.838Z,7.80
2019-04-26T06:35:51.182Z,7.80
2019-04-26T06:38:54.276Z,7.80
2019-04-26T06:42:01.468Z,7.80
2019-04-26T06:44:34.588Z,7.80
2019-04-26T06:47:14.646Z,8.00
2019-04-26T06:50:17.797Z,8.00
2019-04-26T06:53:01.577Z,8.10
2019-04-26T06:55:38.977Z,8.10
2019-04-26T06:58:14.980Z,8.10
2019-04-26T07:01:01.104Z,8.20
2019-04-26T07:03:32.641Z,8.20
2019-04-26T07:06:02.543Z,8.20
2019-04-26T07:08:57.206Z,8.30
2019-04-26T07:11:35.752Z,8.30
2019-04-26T07:14:27.248Z,8.30
2019-04-26T07:17:08.279Z,8.30
2019-04-26T07:20:04.534Z,8.20
2019-04-26T07:23:10.935Z,8.20
2019-04-26T07:26:13.670Z,8.20
2019-04-26T07:29:25.325Z,8.20
2019-04-26T07:31:58.447Z,8.10
2019-04-26T07:35:01.095Z,8.00
2019-04-26T07:37:41.713Z,8.00
2019-04-26T07:40:46.648Z,7.90
2019-04-26T07:43:24.854Z,7.90
2019-04-26T07:46:10.621Z,8.00
2019-04-26T07:48:48.574Z,7.90
2019-04-26T07:51:52.079Z,7.90
2019-04-26T07:54:49.918Z,8.00
2019-04-26T07:57:40.590Z,8.00
2019-04-26T08:00:14.177Z,8.00
2019-04-26T08:03:16.190Z,8.10
2019-04-26T08:05:59.958Z,8.10
2019-04-26T08:08:30.922Z,8.10
2019-04-26T08:11:04.590Z,8.10
2019-04-26T08:13:35.529Z,8.10
2019-04-26T08:16:35.208Z,8.10
2019-04-26T08:19:07.042Z,8.10
2019-04-26T08:21:42.530Z,8.10
2019-04-26T08:24:23.375Z,8.20
2019-04-26T08:27:08.759Z,8.20
2019-04-26T08:29:34.681Z,8.30
2019-04-26T08:32:09.714Z,8.40
2019-04-26T08:34:40.893Z,8.50
2019-04-26T08:37:21.322Z,8.50
2019-04-26T08:39:51.986Z,8.60
2019-04-26T08:42:25.045Z,8.70
2019-04-26T08:45:10.156Z,8.70
2019-04-26T08:47:53.582Z,8.80
2019-04-26T08:50:28.152Z,8.80
2019-04-26T08:52:58.937Z,8.80
2019-04-26T08:55:29.568Z,8.80
2019-04-26T08:58:00.749Z,8.80
2019-04-26T09:00:42.040Z,8.80
2019-04-26T09:03:28.801Z,8.70
2019-04-26T09:06:05.489Z,8.60
2019-04-26T09:08:39.181Z,8.60
2019-04-26T09:11:09.046Z,8.60
2019-04-26T09:13:40.530Z,8.60
2019-04-26T09:16:11.423Z,8.70
2019-04-26T09:18:43.447Z,8.70
2019-04-26T09:21:13.398Z,8.70
2019-04-26T09:24:24.912Z,8.70
2019-04-26T09:27:17.216Z,8.70
2019-04-26T09:30:09.104Z,8.80
2019-04-26T09:33:03.107Z,8.70
2019-04-26T09:35:32.961Z,8.70
2019-04-26T09:38:02.261Z,8.70
2019-04-26T09:40:31.788Z,8.70
2019-04-26T09:43:22.105Z,8.70
2019-04-26T09:46:09.333Z,8.70
2019-04-26T09:49:15.898Z,8.70
2019-04-26T09:51:45.217Z,8.70
2019-04-26T09:54:15.487Z,8.70
2019-04-26T09:56:44.848Z,8.60
2019-04-26T09:59:14.157Z,8.60
2019-04-26T10:01:44.476Z,8.60
2019-04-26T10:04:13.713Z,8.60
2019-04-26T10:06:43.032Z,8.70
2019-04-26T10:09:17.216Z,8.70
2019-04-26T10:11:55.421Z,8.70
2019-04-26T10:14:34.732Z,8.80
2019-04-26T10:17:11.451Z,8.80
2019-04-26T10:19:45.699Z,8.80
2019-04-26T10:22:15.606Z,8.80
2019-04-26T10:24:44.846Z,8.80
2019-04-26T10:27:14.354Z,8.80
2019-04-26T10:29:44.699Z,8.80
2019-04-26T10:32:13.956Z,8.90
2019-04-26T10:34:47.355Z,8.90
2019-04-26T10:37:14.265Z,8.90
2019-04-26T10:39:43.507Z,8.90
2019-04-26T10:42:12.756Z,8.90
2019-04-26T10:44:41.994Z,8.90
2019-04-26T10:47:11.357Z,8.90
2019-04-26T10:49:45.569Z,9.00
2019-04-26T10:52:25.020Z,9.00
2019-04-26T10:55:06.090Z,9.00
2019-04-26T10:57:38.490Z,9.00
2019-04-26T11:00:10.223Z,9.00
2019-04-26T11:02:39.468Z,9.00
2019-04-26T11:05:11.671Z,8.90
2019-04-26T11:07:39.724Z,8.90
2019-04-26T11:10:09.637Z,8.90
2019-04-26T11:12:39.648Z,9.00
2019-04-26T11:15:10.122Z,9.00
2019-04-26T11:17:39.416Z,9.00
2019-04-26T11:20:10.496Z,9.00
2019-04-26T11:22:39.835Z,9.10
2019-04-26T11:25:09.157Z,9.10
2019-04-26T11:27:40.242Z,9.20
2019-04-26T11:30:12.291Z,9.20
2019-04-26T11:32:40.517Z,9.10
2019-04-26T11:35:09.757Z,9.10
2019-04-26T11:37:39.107Z,9.10
2019-04-26T11:40:10.220Z,9.20
2019-04-26T11:42:41.897Z,9.10
2019-04-26T11:45:14.628Z,9.10
2019-04-26T11:47:54.239Z,9.00
2019-04-26T11:50:16.094Z,9.00
2019-04-26T11:52:44.826Z,9.00
2019-04-26T11:55:14.969Z,9.00
2019-04-26T11:57:47.491Z,9.00
2019-04-26T12:00:27.716Z,9.10
2019-04-26T12:02:58.108Z,9.10
2019-04-26T12:05:58.780Z,9.20
2019-04-26T12:08:39.892Z,9.30
2019-04-26T12:11:18.373Z,9.20
2019-04-26T12:13:40.244Z,9.20
2019-04-26T12:16:09.926Z,9.20
2019-04-26T12:18:40.197Z,9.10
2019-04-26T12:21:10.321Z,9.10
2019-04-26T12:23:39.698Z,9.10
2019-04-26T12:26:09.053Z,9.20
2019-04-26T12:28:39.980Z,9.30
2019-04-26T12:31:09.394Z,9.30
2019-04-26T12:33:39.158Z,9.30
2019-04-26T12:36:13.176Z,9.30
2019-04-26T12:38:40.677Z,9.30
2019-04-26T12:41:11.559Z,9.30
2019-04-26T12:43:41.081Z,9.40
2019-04-26T12:46:22.735Z,9.50
2019-04-26T12:48:51.594Z,9.60
2019-04-26T12:51:21.950Z,9.60
2019-04-26T12:53:51.193Z,9.60
2019-04-26T12:56:20.513Z,9.60
2019-04-26T12:58:51.179Z,9.60
2019-04-26T13:01:21.922Z,9.60
2019-04-26T13:04:04.441Z,9.60
2019-04-26T13:06:35.950Z,9.60
2019-04-26T13:09:09.887Z,9.70
2019-04-26T13:11:58.391Z,9.80
2019-04-26T13:14:42.863Z,9.90
2019-04-26T13:17:14.024Z,10.00
2019-04-26T13:19:43.288Z,10.10
2019-04-26T13:22:13.508Z,10.20
2019-04-26T13:24:42.946Z,10.30
2019-04-26T13:27:12.643Z,10.40
2019-04-26T13:29:41.872Z,10.40
2019-04-26T13:32:12.268Z,10.50
2019-04-26T13:34:41.804Z,10.60
2019-04-26T13:37:11.106Z,10.60
2019-04-26T13:39:40.488Z,10.70
2019-04-26T13:42:13.382Z,10.70
2019-04-26T13:45:01.596Z,10.80
2019-04-26T13:47:54.030Z,10.80
2019-04-26T13:50:29.724Z,10.80
2019-04-26T13:52:59.000Z,10.80
2019-04-26T13:55:29.496Z,10.90
2019-04-26T13:57:59.224Z,10.90
2019-04-26T14:00:30.799Z,11.00
2019-04-26T14:03:00.641Z,11.10
2019-04-26T14:05:29.929Z,11.20
2019-04-26T14:07:59.225Z,11.20
2019-04-26T14:10:28.549Z,11.20
2019-04-26T14:12:57.882Z,11.30
2019-04-26T14:15:28.172Z,11.30
2019-04-26T14:18:00.309Z,11.40
2019-04-26T14:20:28.457Z,11.50
2019-04-26T14:23:15.310Z,11.50
2019-04-26T14:25:55.602Z,11.50
2019-04-26T14:28:25.288Z,11.50
2019-04-26T14:30:54.904Z,11.50
2019-04-26T14:33:27.144Z,11.40
2019-04-26T14:35:56.290Z,11.40
2019-04-26T14:38:27.993Z,11.30
2019-04-26T14:41:03.798Z,11.30
2019-04-26T14:43:39.926Z,11.30
2019-04-26T14:45:58.648Z,11.20
2019-04-26T14:48:35.718Z,11.20
2019-04-26T14:51:07.841Z,11.10
2019-04-26T14:53:32.099Z,11.10
2019-04-26T14:56:01.208Z,11.10
2019-04-26T14:58:32.105Z,11.00
2019-04-26T15:01:03.281Z,11.00
2019-04-26T15:03:43.138Z,11.00
2019-04-26T15:06:23.677Z,11.00
2019-04-26T15:08:53.159Z,10.90
2019-04-26T15:11:23.015Z,10.90
2019-04-26T15:13:52.889Z,10.90
2019-04-26T15:16:24.391Z,11.00
2019-04-26T15:18:54.518Z,11.00
2019-04-26T15:21:27.362Z,11.00
2019-04-26T15:23:55.441Z,11.10
2019-04-26T15:26:29.819Z,11.10
2019-04-26T15:28:58.450Z,11.20
2019-04-26T15:31:27.934Z,11.20
2019-04-26T15:33:57.268Z,11.10
2019-04-26T15:36:26.632Z,11.20
2019-04-26T15:38:56.498Z,11.20
2019-04-26T15:41:47.034Z,11.20
2019-04-26T15:44:43.917Z,11.20
2019-04-26T15:47:45.713Z,11.30
2019-04-26T15:50:34.573Z,11.20
2019-04-26T15:53:06.651Z,11.20
2019-04-26T15:55:43.585Z,11.10
2019-04-26T15:58:13.170Z,11.10
2019-04-26T16:00:42.931Z,11.00
2019-04-26T16:03:12.872Z,11.00
2019-04-26T16:05:43.353Z,11.00
2019-04-26T16:08:13.130Z,11.00
2019-04-26T16:10:43.021Z,11.00
2019-04-26T16:13:21.431Z,11.00
2019-04-26T16:15:48.704Z,11.10
2019-04-26T16:18:17.358Z,11.10
2019-04-26T16:20:46.516Z,11.10
2019-04-26T16:23:15.958Z,11.10
2019-04-26T16:25:45.326Z,11.10
2019-04-26T16:28:33.324Z,11.10
2019-04-26T16:31:13.990Z,11.10
2019-04-26T16:33:44.855Z,11.20
2019-04-26T16:36:14.361Z,11.20
2019-04-26T16:38:43.651Z,11.20
2019-04-26T16:41:12.929Z,11.30
2019-04-26T16:43:52.204Z,11.30
2019-04-26T16:46:20.125Z,11.30
2019-04-26T16:48:44.999Z,11.30
2019-04-26T16:51:14.577Z,11.30
2019-04-26T16:54:02.501Z,11.30
2019-04-26T16:56:15.137Z,11.30
2019-04-26T17:00:45.365Z,11.30
2019-04-26T17:01:15.523Z,11.30
2019-04-26T17:03:48.035Z,11.20
2019-04-26T17:06:16.231Z,11.20
2019-04-26T17:08:50.004Z,11.10
2019-04-26T17:11:16.578Z,11.10
2019-04-26T17:13:50.641Z,11.10
2019-04-26T17:16:16.912Z,11.00
2019-04-26T17:18:46.314Z,11.00
2019-04-26T17:21:17.605Z,10.90
2019-04-26T17:23:56.100Z,10.90
2019-04-26T17:26:36.950Z,10.80
2019-04-26T17:29:06.317Z,10.70
2019-04-26T17:31:35.682Z,10.60
2019-04-26T17:34:05.199Z,10.60
2019-04-26T17:36:34.797Z,10.60
2019-04-26T17:39:06.230Z,10.50
2019-04-26T17:41:35.562Z,10.50
2019-04-26T17:44:10.211Z,10.40
2019-04-26T17:46:36.321Z,10.40
2019-04-26T17:49:05.693Z,10.40
2019-04-26T17:51:41.707Z,10.40
2019-04-26T17:54:26.560Z,10.30
2019-04-26T17:56:39.629Z,10.20
2019-04-26T17:59:10.437Z,10.10
2019-04-26T18:01:47.427Z,10.10
2019-04-26T18:04:11.333Z,10.00
2019-04-26T18:06:45.458Z,9.90
2019-04-26T18:09:37.620Z,9.80
2019-04-26T18:11:42.945Z,9.70
2019-04-26T18:14:21.330Z,9.60
2019-04-26T18:16:47.221Z,9.50
2019-04-26T18:19:45.307Z,9.50
2019-04-26T18:22:49.916Z,9.40
2019-04-26T18:25:19.266Z,9.40
2019-04-26T18:27:48.632Z,9.30
2019-04-26T18:30:18.013Z,9.20
2019-04-26T18:32:47.974Z,9.20
2019-04-26T18:35:17.384Z,9.10
2019-04-26T18:37:46.897Z,9.00
2019-04-26T18:40:16.323Z,9.00
2019-04-26T18:42:45.844Z,8.90
2019-04-26T18:45:21.230Z,8.80
2019-04-26T18:47:47.871Z,8.80
2019-04-26T18:50:18.738Z,8.70
2019-04-26T18:53:10.414Z,8.60
2019-04-26T18:55:39.712Z,8.50
2019-04-26T18:58:08.966Z,8.40
2019-04-26T19:00:38.993Z,8.20
2019-04-26T19:03:08.261Z,8.10
2019-04-26T19:05:37.594Z,8.10
2019-04-26T19:08:09.839Z,8.10
2019-04-26T19:10:38.843Z,8.00
2019-04-26T19:13:25.914Z,8.00
2019-04-26T19:16:03.576Z,8.00
2019-04-26T19:18:53.781Z,7.90
2019-04-26T19:21:39.206Z,7.90
2019-04-26T19:24:17.106Z,7.90
2019-04-26T19:26:39.348Z,7.80
2019-04-26T19:29:16.258Z,7.80
2019-04-26T19:31:41.484Z,7.70
2019-04-26T19:34:11.573Z,7.70
2019-04-26T19:36:42.090Z,7.70
2019-04-26T19:39:12.846Z,7.70
2019-04-26T19:41:43.691Z,7.60
2019-04-26T19:44:14.623Z,7.60
2019-04-26T19:46:53.643Z,7.60
2019-04-26T19:49:43.344Z,7.60
2019-04-26T19:52:33.774Z,7.60
2019-04-26T19:55:47.205Z,7.50
2019-04-26T19:58:20.030Z,7.50
2019-04-26T20:00:46.912Z,7.50
2019-04-26T20:03:17.059Z,7.50
2019-04-26T20:05:46.438Z,7.40
2019-04-26T20:08:15.680Z,7.40
2019-04-26T20:10:45.883Z,7.40
2019-04-26T20:13:16.636Z,7.30
2019-04-26T20:15:46.139Z,7.30
2019-04-26T20:18:17.646Z,7.30
2019-04-26T20:20:47.581Z,7.30
2019-04-26T20:23:19.340Z,7.20
2019-04-26T20:25:48.093Z,7.20
2019-04-26T20:28:17.420Z,7.10
2019-04-26T20:31:12.328Z,7.10
2019-04-26T20:33:42.457Z,7.10
2019-04-26T20:36:11.858Z,7.10
2019-04-26T20:38:46.137Z,7.10
2019-04-26T20:41:14.767Z,7.10
2019-04-26T20:43:46.994Z,7.10
2019-04-26T20:46:15.673Z,7.00
2019-04-26T20:48:46.771Z,7.00
2019-04-26T20:51:18.191Z,7.00
2019-04-26T20:53:47.343Z,7.00
2019-04-26T20:56:18.751Z,7.00
2019-04-26T20:58:48.429Z,7.00
2019-04-26T21:01:17.756Z,7.00
2019-04-26T21:03:47.063Z,7.00
2019-04-26T21:06:16.392Z,7.00
2019-04-26T21:08:45.658Z,7.00
2019-04-26T21:11:14.900Z,6.90
2019-04-26T21:13:44.168Z,6.90
2019-04-26T21:16:15.480Z,6.90
2019-04-26T21:18:44.763Z,6.90
2019-04-26T21:21:16.135Z,6.90
2019-04-26T21:23:47.033Z,6.90
2019-04-26T21:26:23.193Z,6.90
2019-04-26T21:29:15.494Z,6.90
2019-04-26T21:31:59.870Z,6.90
2019-04-26T21:34:34.503Z,6.90
2019-04-26T21:37:11.498Z,6.90
2019-04-26T21:40:22.746Z,6.80
2019-04-26T21:42:47.825Z,6.80
2019-04-26T21:45:17.175Z,6.80
2019-04-26T21:47:46.538Z,6.80
2019-04-26T21:50:16.905Z,6.80
2019-04-26T21:52:47.752Z,6.80
2019-04-26T21:55:18.380Z,6.80
2019-04-26T21:57:48.842Z,6.80
2019-04-26T22:00:36.284Z,6.90
2019-04-26T22:03:12.612Z,6.90
2019-04-26T22:05:45.439Z,7.00
2019-04-26T22:08:17.412Z,7.10
2019-04-26T22:10:48.247Z,7.10
2019-04-26T22:13:24.737Z,7.20
2019-04-26T22:16:29.410Z,7.20
2019-04-26T22:19:06.470Z,7.20
2019-04-26T22:21:52.772Z,7.30
2019-04-26T22:24:28.297Z,7.40
2019-04-26T22:26:58.776Z,7.40
2019-04-26T22:29:29.352Z,7.50
2019-04-26T22:31:59.886Z,7.50
2019-04-26T22:34:30.345Z,7.50
2019-04-26T22:37:01.829Z,7.50
2019-04-26T22:39:39.719Z,7.50
2019-04-26T22:42:05.846Z,7.50
2019-04-26T22:44:41.260Z,7.50
2019-04-26T22:47:41.272Z,7.50
2019-04-26T22:50:09.445Z,7.40
2019-04-26T22:52:39.885Z,7.40
2019-04-26T22:55:10.437Z,7.40
2019-04-26T22:57:40.899Z,7.40
2019-04-26T23:00:13.073Z,7.40
2019-04-26T23:02:45.842Z,7.30
2019-04-26T23:05:16.616Z,7.20
2019-04-26T23:07:47.140Z,7.10
2019-04-26T23:10:18.291Z,7.10
2019-04-26T23:13:07.593Z,7.00
2019-04-26T23:16:11.078Z,7.00
2019-04-26T23:19:03.769Z,7.10
2019-04-26T23:21:37.821Z,7.10
2019-04-26T23:24:11.500Z,7.20
2019-04-26T23:26:45.098Z,7.30
2019-04-26T23:29:16.276Z,7.30
2019-04-26T23:31:46.029Z,7.30
2019-04-26T23:34:16.503Z,7.30
2019-04-26T23:36:49.103Z,7.30
2019-04-26T23:39:19.518Z,7.30
2019-04-26T23:41:49.995Z,7.40
2019-04-26T23:44:20.440Z,7.40
2019-04-26T23:46:56.579Z,7.50
2019-04-26T23:49:25.298Z,7.50
2019-04-26T23:51:55.698Z,7.60
2019-04-26T23:54:28.189Z,7.70
2019-04-26T23:56:58.957Z,7.80
2019-04-26T23:59:29.880Z,7.90
